Time;durP1;ratioP1;P1;durP2;ratioP2;P2;SDS_P1;SDS_P2;PMS_P1;PMS_P2;Temp;Humidity;BMP_temperature;BMP_pressure;BME280_temperature;BME280_humidity;BME280_pressure;Samples;Min_cycle;Max_cycle;Signal;HPM_P1;HPM_P2
2021/09/29 00:00:37;;;;;;;43.85;32.80;;;461.60;2252.80;;;;;;5115491;28;20108;-66
2021/09/29 00:03:03;;;;;;;41.63;31.75;;;461.60;2252.80;;;;;;5116716;28;20540;-66
2021/09/29 00:05:29;;;;;;;46.10;32.40;;;461.60;2252.80;;;;;;5116921;28;20028;-66
2021/09/29 00:07:54;;;;;;;41.85;31.65;;;461.60;2252.80;;;;;;5116749;28;20042;-66
2021/09/29 00:10:20;;;;;;;42.17;32.00;;;461.60;2252.80;;;;;;5116556;28;20080;-65
2021/09/29 00:12:47;;;;;;;48.80;32.00;;;461.60;2227.20;;;;;;5116780;28;20053;-65
2021/09/29 00:15:14;;;;;;;47.60;32.35;;;461.60;2227.20;;;;;;5116751;28;20026;-65
2021/09/29 00:17:44;;;;;;;38.80;31.02;;;461.60;2227.20;;;;;;5116439;28;20019;-65
2021/09/29 00:20:11;;;;;;;36.80;30.33;;;461.50;2227.20;;;;;;5116468;28;20030;-65
2021/09/29 00:22:38;;;;;;;37.42;29.75;;;461.50;2227.20;;;;;;5116490;28;20028;-65
2021/09/29 00:25:06;;;;;;;37.47;29.13;;;461.50;2227.20;;;;;;5116392;28;20072;-65
2021/09/29 00:27:32;;;;;;;39.47;29.73;;;461.50;2201.60;;;;;;5115689;27;20039;-65
2021/09/29 00:30:01;;;;;;;38.40;30.17;;;461.50;2227.20;;;;;;5116314;28;20024;-65
2021/09/29 00:32:28;;;;;;;46.70;30.05;;;461.50;2227.20;;;;;;5114715;28;20135;-65
2021/09/29 00:34:54;;;;;;;42.25;30.77;;;461.50;2201.60;;;;;;5114904;28;20453;-65
2021/09/29 00:37:19;;;;;;;41.50;29.83;;;461.40;2227.20;;;;;;5115032;28;20035;-65
2021/09/29 00:39:45;;;;;;;36.75;28.85;;;461.50;2227.20;;;;;;5116170;28;20023;-66
2021/09/29 00:42:11;;;;;;;45.28;30.65;;;461.30;2227.20;;;;;;5115492;28;20054;-65
2021/09/29 00:44:37;;;;;;;36.58;29.67;;;461.30;2201.60;;;;;;5115995;28;20479;-65
2021/09/29 00:47:03;;;;;;;41.58;30.95;;;461.30;2227.20;;;;;;5115945;28;20040;-65
2021/09/29 00:49:28;;;;;;;42.58;29.92;;;461.30;2201.60;;;;;;5115850;28;20093;-65
2021/09/29 00:51:56;;;;;;;34.15;28.00;;;461.30;2201.60;;;;;;5115801;28;20028;-66
2021/09/29 00:54:27;;;;;;;33.28;27.38;;;461.20;2201.60;;;;;;5115956;28;20023;-65
2021/09/29 00:56:53;;;;;;;35.53;27.15;;;461.30;2201.60;;;;;;5115959;28;20028;-65
2021/09/29 00:59:18;;;;;;;33.10;27.63;;;461.20;2201.60;;;;;;5115934;28;20023;-65
2021/09/29 01:01:46;;;;;;;36.22;28.08;;;461.20;2201.60;;;;;;5115789;28;20047;-65
2021/09/29 01:04:12;;;;;;;33.42;28.17;;;461.20;2201.60;;;;;;5114779;28;20381;-65
2021/09/29 01:06:43;;;;;;;34.42;28.23;;;461.10;2227.20;;;;;;5115433;28;20027;-65
2021/09/29 01:09:31;;;;;;;43.28;28.73;;;461.10;2201.60;;;;;;5115641;28;20402;-65
2021/09/29 01:12:11;;;;;;;36.70;27.88;;;461.10;2201.60;;;;;;5115578;28;20023;-65
2021/09/29 01:14:48;;;;;;;35.63;28.08;;;461.00;2201.60;;;;;;5114117;28;20028;-66
2021/09/29 01:17:18;;;;;;;36.03;27.15;;;461.10;2201.60;;;;;;5115472;28;20019;-65
2021/09/29 01:20:09;;;;;;;38.13;27.88;;;461.10;2201.60;;;;;;5115403;28;20024;-65
2021/09/29 01:22:41;;;;;;;35.10;26.95;;;461.10;2227.20;;;;;;5114578;28;20016;-64
2021/09/29 01:25:16;;;;;;;35.65;26.67;;;461.00;2227.20;;;;;;5115380;28;20023;-64
2021/09/29 01:27:44;;;;;;;29.75;24.25;;;461.10;2227.20;;;;;;5115196;28;20039;-65
2021/09/29 01:30:10;;;;;;;26.70;23.08;;;461.00;2227.20;;;;;;5115131;28;20366;-65
2021/09/29 01:32:37;;;;;;;27.52;23.67;;;461.00;2227.20;;;;;;5114654;28;20027;-64
2021/09/29 01:35:03;;;;;;;25.50;22.80;;;461.00;2227.20;;;;;;5115149;28;20385;-65
2021/09/29 01:37:29;;;;;;;30.25;24.35;;;460.90;2227.20;;;;;;5114387;28;20090;-65
2021/09/29 01:39:55;;;;;;;28.85;23.63;;;460.90;2227.20;;;;;;5115088;28;20418;-64
2021/09/29 01:42:23;;;;;;;25.50;22.48;;;460.90;2227.20;;;;;;5113654;28;20134;-64
2021/09/29 01:44:48;;;;;;;25.13;22.38;;;460.90;2227.20;;;;;;5114857;28;20024;-65
2021/09/29 01:47:14;;;;;;;29.02;23.92;;;460.90;2227.20;;;;;;5114353;28;20438;-64
2021/09/29 01:49:47;;;;;;;29.15;23.45;;;460.90;2252.80;;;;;;5114985;28;20024;-64
2021/09/29 01:52:19;;;;;;;29.08;21.58;;;460.90;2252.80;;;;;;5114927;28;20105;-64
2021/09/29 01:54:47;;;;;;;25.08;21.38;;;460.90;2227.20;;;;;;5114814;28;20026;-65
2021/09/29 01:57:13;;;;;;;24.92;21.40;;;460.90;2227.20;;;;;;5114980;28;20019;-64
2021/09/29 01:59:42;;;;;;;23.30;20.67;;;460.90;2227.20;;;;;;5114780;28;20015;-64
2021/09/29 02:02:08;;;;;;;21.67;19.38;;;460.80;2227.20;;;;;;5114667;28;20023;-65
2021/09/29 02:04:34;;;;;;;24.52;20.52;;;460.80;2227.20;;;;;;5114565;28;20465;-64
2021/09/29 02:06:59;;;;;;;23.05;20.65;;;460.80;2227.20;;;;;;5113065;28;20043;-64
2021/09/29 02:09:27;;;;;;;20.83;18.63;;;460.80;2227.20;;;;;;5114742;28;20377;-64
2021/09/29 02:11:55;;;;;;;22.95;19.08;;;460.80;2227.20;;;;;;5114323;28;20084;-64
2021/09/29 02:14:22;;;;;;;22.20;19.88;;;436.10;2201.60;;;;;;5114618;28;20024;-64
2021/09/29 02:16:53;;;;;;;20.73;18.35;;;436.00;2201.60;;;;;;5112940;28;20056;-64
2021/09/29 02:19:19;;;;;;;21.23;18.17;;;436.00;2201.60;;;;;;5114445;28;20106;-64
2021/09/29 02:21:45;;;;;;;20.40;18.33;;;436.00;2201.60;;;;;;5113038;28;20061;-65
2021/09/29 02:24:12;;;;;;;20.63;18.30;;;436.00;2201.60;;;;;;5114376;28;20032;-64
2021/09/29 02:26:38;;;;;;;22.13;18.58;;;436.00;2201.60;;;;;;5113727;28;20392;-64
2021/09/29 02:29:06;;;;;;;20.60;18.35;;;436.00;2201.60;;;;;;5113962;28;20035;-64
2021/09/29 02:31:32;;;;;;;20.58;18.48;;;436.00;2201.60;;;;;;5113919;28;20028;-64
2021/09/29 02:33:58;;;;;;;22.40;19.95;;;436.10;2176.00;;;;;;5112707;28;20015;-64
2021/09/29 02:36:24;;;;;;;21.88;19.58;;;436.10;2176.00;;;;;;5113756;28;20036;-64
2021/09/29 02:38:51;;;;;;;24.20;20.95;;;436.10;2176.00;;;;;;5114063;28;20073;-64
2021/09/29 02:41:18;;;;;;;23.83;20.13;;;436.10;2176.00;;;;;;5113935;28;20148;-65
2021/09/29 02:43:44;;;;;;;25.13;20.63;;;460.80;2201.60;;;;;;5112131;28;20477;-64
2021/09/29 02:46:10;;;;;;;27.30;20.45;;;436.10;2150.40;;;;;;5113828;28;20036;-64
2021/09/29 02:48:35;;;;;;;24.38;17.88;;;460.80;2201.60;;;;;;5113294;28;20102;-67
2021/09/29 02:51:02;;;;;;;18.33;15.73;;;436.10;2176.00;;;;;;5113990;28;20036;-66
2021/09/29 02:53:30;;;;;;;19.88;14.50;;;460.80;2176.00;;;;;;5112661;28;20020;-66
2021/09/29 02:56:00;;;;;;;15.77;13.93;;;436.10;2150.40;;;;;;5114052;28;20039;-66
2021/09/29 02:58:27;;;;;;;16.13;12.93;;;436.10;2150.40;;;;;;5113787;28;20602;-66
2021/09/29 03:00:53;;;;;;;13.77;12.20;;;436.00;2150.40;;;;;;5114115;28;20024;-66
2021/09/29 03:03:20;;;;;;;13.95;12.55;;;436.10;2150.40;;;;;;5112380;28;20100;-66
2021/09/29 03:05:47;;;;;;;14.25;12.85;;;436.00;2150.40;;;;;;5112404;28;20031;-66
2021/09/29 03:08:13;;;;;;;13.85;12.52;;;436.00;2150.40;;;;;;5113900;28;20028;-66
2021/09/29 03:10:40;;;;;;;13.63;12.43;;;436.00;2124.80;;;;;;5113963;28;20027;-66
2021/09/29 03:13:06;;;;;;;17.05;13.15;;;436.00;2124.80;;;;;;5113835;28;20019;-66
2021/09/29 03:15:32;;;;;;;14.52;13.02;;;436.00;2124.80;;;;;;5113888;28;20089;-66
2021/09/29 03:17:58;;;;;;;14.48;13.00;;;435.90;2150.40;;;;;;5113845;28;20472;-66
2021/09/29 03:20:25;;;;;;;15.43;12.13;;;435.90;2150.40;;;;;;5112327;28;20056;-63
2021/09/29 03:22:52;;;;;;;15.00;13.18;;;435.90;2150.40;;;;;;5113721;28;20027;-66
2021/09/29 03:25:19;;;;;;;15.32;13.77;;;435.90;2150.40;;;;;;5113493;28;20497;-66
2021/09/29 03:27:45;;;;;;;14.82;13.43;;;435.80;2150.40;;;;;;5113617;28;20043;-66
2021/09/29 03:30:11;;;;;;;19.50;15.82;;;435.70;2150.40;;;;;;5113638;28;20027;-66
2021/09/29 03:32:37;;;;;;;16.52;14.73;;;435.70;2176.00;;;;;;5114044;28;20373;-66
2021/09/29 03:35:04;;;;;;;17.20;15.43;;;435.70;2176.00;;;;;;5113715;28;20024;-65
2021/09/29 03:37:29;;;;;;;17.55;15.75;;;435.70;2201.60;;;;;;5113415;28;20051;-66
2021/09/29 03:39:55;;;;;;;16.02;14.43;;;435.70;2176.00;;;;;;5113766;28;20491;-66
2021/09/29 03:42:21;;;;;;;15.82;14.02;;;435.70;2201.60;;;;;;5113508;28;20051;-66
2021/09/29 03:44:47;;;;;;;16.58;14.98;;;435.60;2176.00;;;;;;5115763;28;20095;-66
2021/09/29 03:47:13;;;;;;;16.58;14.68;;;435.60;2201.60;;;;;;5117302;28;20027;-65
2021/09/29 03:49:39;;;;;;;15.77;14.18;;;435.60;2201.60;;;;;;5117035;28;20015;-66
2021/09/29 03:52:05;;;;;;;17.98;14.57;;;435.60;2201.60;;;;;;5117304;28;20023;-66
2021/09/29 03:54:31;;;;;;;16.48;14.90;;;435.60;2201.60;;;;;;5116722;28;20028;-66
2021/09/29 03:56:59;;;;;;;16.30;14.60;;;435.60;2201.60;;;;;;5116894;28;20030;-66
2021/09/29 03:59:25;;;;;;;16.63;15.07;;;435.60;2201.60;;;;;;5117037;28;20012;-66
2021/09/29 04:01:51;;;;;;;16.65;14.95;;;435.60;2201.60;;;;;;5116509;28;20373;-65
2021/09/29 04:04:17;;;;;;;17.08;15.48;;;435.60;2201.60;;;;;;5116905;28;20015;-66
2021/09/29 04:06:43;;;;;;;17.05;15.25;;;435.60;2201.60;;;;;;5116651;28;20031;-65
2021/09/29 04:09:09;;;;;;;17.40;15.70;;;435.60;2201.60;;;;;;5116911;28;20376;-65
2021/09/29 04:11:35;;;;;;;18.70;16.83;;;435.60;2201.60;;;;;;5116812;28;20461;-65
2021/09/29 04:14:01;;;;;;;18.65;16.85;;;435.60;2201.60;;;;;;5116888;28;20016;-65
2021/09/29 04:16:26;;;;;;;18.67;16.90;;;435.60;2201.60;;;;;;5116633;28;20415;-66
2021/09/29 04:18:52;;;;;;;19.35;17.45;;;435.60;2201.60;;;;;;5114069;28;20040;-66
2021/09/29 04:21:18;;;;;;;20.52;18.42;;;435.60;2227.20;;;;;;5116761;28;20023;-66
2021/09/29 04:23:44;;;;;;;20.95;18.80;;;435.60;2227.20;;;;;;5116368;28;20027;-66
2021/09/29 04:26:09;;;;;;;21.02;18.95;;;435.60;2227.20;;;;;;5116578;28;20031;-66
2021/09/29 04:28:35;;;;;;;21.33;19.02;;;435.60;2227.20;;;;;;5116471;28;20377;-65
2021/09/29 04:31:02;;;;;;;21.70;19.50;;;435.60;2227.20;;;;;;5116178;28;20035;-65
2021/09/29 04:33:29;;;;;;;21.98;19.77;;;435.60;2252.80;;;;;;5116231;28;20022;-65
2021/09/29 04:35:55;;;;;;;23.08;20.48;;;435.60;2252.80;;;;;;5116190;28;20023;-65
2021/09/29 04:38:21;;;;;;;23.02;20.55;;;435.70;2252.80;;;;;;5116369;28;20418;-65
2021/09/29 04:40:47;;;;;;;23.10;20.55;;;435.70;2252.80;;;;;;5116263;28;20024;-65
2021/09/29 04:43:14;;;;;;;23.42;21.08;;;435.70;2252.80;;;;;;5115909;28;20048;-66
2021/09/29 04:45:40;;;;;;;25.42;22.73;;;435.70;2278.40;;;;;;5115065;28;20641;-65
2021/09/29 04:48:07;;;;;;;26.20;23.45;;;435.70;2278.40;;;;;;5115663;28;20059;-65
2021/09/29 04:50:34;;;;;;;24.40;22.02;;;435.70;2304.00;;;;;;5115782;28;20381;-65
2021/09/29 04:53:01;;;;;;;27.02;24.20;;;435.80;2304.00;;;;;;5116014;28;20090;-67
2021/09/29 04:55:28;;;;;;;25.67;23.10;;;435.80;2304.00;;;;;;5114923;28;20049;-68
2021/09/29 04:57:54;;;;;;;25.42;22.70;;;435.90;2304.00;;;;;;5115918;28;20119;-67
2021/09/29 05:00:20;;;;;;;25.13;22.42;;;435.90;2304.00;;;;;;5115933;28;20503;-68
2021/09/29 05:02:49;;;;;;;25.33;22.75;;;435.90;2304.00;;;;;;5114262;28;20031;-67
2021/09/29 05:05:15;;;;;;;24.23;21.73;;;436.00;2304.00;;;;;;5115582;28;20414;-67
2021/09/29 05:07:41;;;;;;;24.70;22.20;;;436.00;2304.00;;;;;;5115735;28;20028;-65
2021/09/29 05:10:14;;;;;;;25.20;22.58;;;436.00;2304.00;;;;;;5115432;28;20110;-65
2021/09/29 05:12:40;;;;;;;23.77;21.38;;;436.00;2304.00;;;;;;5115291;28;20020;-65
2021/09/29 05:15:06;;;;;;;23.92;21.50;;;436.10;2304.00;;;;;;5113573;28;20389;-65
2021/09/29 05:17:32;;;;;;;22.83;20.52;;;436.10;2304.00;;;;;;5115479;28;20045;-67
2021/09/29 05:19:57;;;;;;;24.35;21.73;;;460.80;2329.60;;;;;;5115244;28;20067;-67
2021/09/29 05:22:23;;;;;;;29.60;23.30;;;460.80;2355.20;;;;;;5115468;28;20027;-67
2021/09/29 05:24:49;;;;;;;25.13;22.35;;;460.80;2355.20;;;;;;5115381;28;20023;-67
2021/09/29 05:27:15;;;;;;;27.83;23.73;;;460.80;2355.20;;;;;;5115215;28;20126;-65
2021/09/29 05:29:44;;;;;;;26.08;22.90;;;460.80;2355.20;;;;;;5115272;28;20020;-65
2021/09/29 05:32:09;;;;;;;32.40;24.73;;;460.90;2355.20;;;;;;5115271;28;20409;-65
2021/09/29 05:34:35;;;;;;;27.73;23.88;;;460.90;2380.80;;;;;;5114403;28;20023;-65
2021/09/29 05:37:01;;;;;;;34.22;25.42;;;460.90;2380.80;;;;;;5115032;28;20035;-68
2021/09/29 05:39:27;;;;;;;31.48;24.50;;;460.90;2355.20;;;;;;5114964;28;20020;-67
2021/09/29 05:41:52;;;;;;;35.83;27.30;;;461.00;2355.20;;;;;;5114842;28;20052;-68
2021/09/29 05:44:18;;;;;;;34.88;27.45;;;461.00;2355.20;;;;;;5114927;28;20020;-67
2021/09/29 05:46:44;;;;;;;42.70;29.27;;;461.10;2355.20;;;;;;5114877;28;20082;-67
2021/09/29 05:49:09;;;;;;;43.15;30.88;;;461.10;2355.20;;;;;;5114622;28;20365;-65
2021/09/29 05:51:35;;;;;;;39.65;29.33;;;461.20;2355.20;;;;;;5114934;28;20030;-65
2021/09/29 05:54:01;;;;;;;47.40;32.63;;;461.20;2329.60;;;;;;5113010;28;20035;-65
2021/09/29 05:56:27;;;;;;;48.00;33.05;;;461.20;2329.60;;;;;;5114673;28;20023;-65
2021/09/29 05:58:53;;;;;;;50.70;32.42;;;461.20;2329.60;;;;;;5114697;28;20034;-65
2021/09/29 06:01:18;;;;;;;46.75;31.92;;;461.20;2329.60;;;;;;5112564;28;20036;-65
2021/09/29 06:03:44;;;;;;;52.15;32.85;;;461.30;2329.60;;;;;;5114486;28;20015;-65
2021/09/29 06:06:10;;;;;;;47.97;31.23;;;461.30;2329.60;;;;;;5114272;28;20395;-64
2021/09/29 06:08:36;;;;;;;56.15;31.48;;;461.30;2329.60;;;;;;5114484;28;20023;-65
2021/09/29 06:11:01;;;;;;;45.78;31.30;;;461.30;2329.60;;;;;;5114568;28;20031;-65
2021/09/29 06:13:27;;;;;;;46.00;30.02;;;461.40;2329.60;;;;;;5114095;28;20377;-64
2021/09/29 06:15:53;;;;;;;46.22;29.00;;;461.40;2329.60;;;;;;5113680;28;20475;-64
2021/09/29 06:18:19;;;;;;;40.17;25.45;;;461.40;2329.60;;;;;;5114273;28;20380;-64
2021/09/29 06:20:50;;;;;;;33.92;23.30;;;461.40;2329.60;;;;;;5113753;28;20027;-66
2021/09/29 06:23:18;;;;;;;28.50;19.55;;;461.50;2329.60;;;;;;5113686;28;20016;-67
2021/09/29 06:25:44;;;;;;;23.15;15.77;;;461.50;2304.00;;;;;;5113599;28;20500;-67
2021/09/29 06:28:10;;;;;;;24.00;14.15;;;461.50;2304.00;;;;;;5114338;28;20032;-67
2021/09/29 06:30:36;;;;;;;25.15;14.57;;;461.50;2278.40;;;;;;5114038;28;20008;-67
2021/09/29 06:33:02;;;;;;;21.63;14.20;;;461.50;2278.40;;;;;;5113940;28;20032;-67
2021/09/29 06:35:29;;;;;;;24.67;13.38;;;461.50;2278.40;;;;;;5113866;28;20019;-66
2021/09/29 06:38:00;;;;;;;20.15;12.40;;;461.50;2278.40;;;;;;5110665;28;20081;-67
2021/09/29 06:40:26;;;;;;;19.38;11.23;;;461.50;2278.40;;;;;;5113980;28;20024;-66
2021/09/29 06:42:53;;;;;;;17.73;11.63;;;461.50;2252.80;;;;;;5113515;28;20051;-67
2021/09/29 06:45:19;;;;;;;21.63;11.68;;;461.50;2252.80;;;;;;5109536;28;20035;-64
2021/09/29 06:47:45;;;;;;;16.10;11.18;;;461.60;2252.80;;;;;;5112029;28;20114;-65
2021/09/29 06:50:13;;;;;;;16.88;10.32;;;461.60;2252.80;;;;;;5113327;28;20042;-68
2021/09/29 06:52:39;;;;;;;12.50;8.60;;;461.60;2252.80;;;;;;5114327;28;20496;-68
2021/09/29 06:55:06;;;;;;;13.95;9.93;;;461.60;2227.20;;;;;;5113479;28;20154;-68
2021/09/29 06:57:33;;;;;;;14.10;8.63;;;461.60;2227.20;;;;;;5112853;28;20602;-65
2021/09/29 06:59:58;;;;;;;13.77;7.35;;;461.60;2227.20;;;;;;5112755;28;20118;-65
2021/09/29 07:02:24;;;;;;;13.80;8.07;;;461.60;2227.20;;;;;;5111978;28;20063;-65
2021/09/29 07:04:49;;;;;;;15.18;8.48;;;461.60;2227.20;;;;;;5113997;28;20020;-65
2021/09/29 07:07:15;;;;;;;11.05;7.78;;;461.60;2227.20;;;;;;5113816;28;20035;-67
2021/09/29 07:09:41;;;;;;;16.17;8.15;;;461.60;2227.20;;;;;;5114495;28;20027;-65
2021/09/29 07:12:08;;;;;;;11.40;7.35;;;461.60;2227.20;;;;;;5112716;28;20034;-65
2021/09/29 07:14:34;;;;;;;10.45;7.30;;;461.70;2227.20;;;;;;5113878;28;20457;-65
2021/09/29 07:17:00;;;;;;;12.18;8.20;;;461.70;2201.60;;;;;;5113868;28;20035;-65
2021/09/29 07:19:28;;;;;;;15.63;8.10;;;461.70;2201.60;;;;;;5114951;28;20125;-65
2021/09/29 07:21:53;;;;;;;15.18;8.52;;;486.40;2201.60;;;;;;5117473;28;20019;-68
2021/09/29 07:24:20;;;;;;;17.80;8.75;;;486.40;2201.60;;;;;;5117965;28;20484;-67
2021/09/29 07:26:46;;;;;;;13.27;7.93;;;486.40;2201.60;;;;;;5117637;28;20036;-68
2021/09/29 07:29:11;;;;;;;9.25;7.18;;;486.40;2201.60;;;;;;5117447;28;20034;-67
2021/09/29 07:31:38;;;;;;;17.08;8.88;;;486.50;2201.60;;;;;;5117736;28;20031;-68
2021/09/29 07:34:06;;;;;;;10.57;7.07;;;486.50;2201.60;;;;;;5116935;28;20366;-65
2021/09/29 07:36:38;;;;;;;11.90;7.72;;;486.50;2201.60;;;;;;5115854;28;20118;-65
2021/09/29 07:39:04;;;;;;;12.70;8.20;;;486.50;2201.60;;;;;;5117451;28;20022;-67
2021/09/29 07:41:30;;;;;;;13.60;7.57;;;486.60;2201.60;;;;;;5117369;28;20032;-67
2021/09/29 07:43:56;;;;;;;14.80;8.48;;;486.60;2201.60;;;;;;5117303;28;20111;-67
2021/09/29 07:46:22;;;;;;;11.77;7.93;;;486.60;2150.40;;;;;;5117302;28;20031;-67
2021/09/29 07:48:47;;;;;;;11.73;8.70;;;486.60;2150.40;;;;;;5116979;28;20055;-67
2021/09/29 07:51:15;;;;;;;14.13;8.38;;;486.70;2124.80;;;;;;5116994;28;20035;-67
2021/09/29 07:53:41;;;;;;;15.80;8.25;;;486.70;2124.80;;;;;;5115891;28;20031;-68
2021/09/29 07:56:08;;;;;;;16.05;8.80;;;486.70;2099.20;;;;;;5117115;28;20488;-67
2021/09/29 07:58:34;;;;;;;14.20;8.32;;;486.70;2099.20;;;;;;5115476;28;20023;-67
2021/09/29 08:01:00;;;;;;;13.55;8.18;;;486.70;2073.60;;;;;;5116710;28;20488;-67
2021/09/29 08:03:27;;;;;;;9.88;8.02;;;486.80;2073.60;;;;;;5116486;28;20031;-67
2021/09/29 08:05:55;;;;;;;10.45;7.47;;;486.80;2099.20;;;;;;5116697;28;20020;-67
2021/09/29 08:08:21;;;;;;;22.45;7.57;;;486.80;2099.20;;;;;;5115941;28;20035;-67
2021/09/29 08:10:46;;;;;;;11.25;8.25;;;486.90;2073.60;;;;;;5115404;28;20028;-67
2021/09/29 08:13:12;;;;;;;11.38;8.00;;;486.90;2073.60;;;;;;5116457;28;20031;-67
2021/09/29 08:15:38;;;;;;;10.77;7.50;;;486.90;2073.60;;;;;;5116821;28;20023;-67
2021/09/29 08:18:03;;;;;;;19.08;8.60;;;486.90;2048.00;;;;;;5115961;28;20055;-67
2021/09/29 08:20:34;;;;;;;15.55;7.93;;;487.00;2048.00;;;;;;5115993;28;20461;-67
2021/09/29 08:23:08;;;;;;;11.48;7.90;;;487.00;2022.40;;;;;;5116345;28;20548;-67
2021/09/29 08:28:40;;;;;;;11.15;7.75;;;487.10;1996.80;;;;;;5093969;28;20440;-67
2021/09/29 08:31:13;;;;;;;9.98;6.70;;;487.10;1971.20;;;;;;5094247;28;20032;-67
2021/09/29 08:33:47;;;;;;;9.98;5.47;;;487.10;1971.20;;;;;;5093704;28;20519;-67
2021/09/29 08:38:46;;;;;;;10.45;6.28;;;487.20;1945.60;;;;;;5093691;28;20028;-67
2021/09/29 08:43:53;;;;;;;11.50;6.93;;;487.20;1945.60;;;;;;5093703;28;20036;-67
2021/09/29 08:46:31;;;;;;;12.57;6.57;;;487.30;1945.60;;;;;;5093586;28;20081;-68
2021/09/29 09:18:10;;;;;;;22.33;7.90;;;512.30;1843.20;;;;;;5115728;28;20495;-67
2021/09/29 09:20:40;;;;;;;7.85;5.85;;;512.40;1843.20;;;;;;5115892;28;20024;-67
2021/09/29 09:23:06;;;;;;;15.73;6.10;;;512.50;1817.60;;;;;;5115199;28;20424;-67
2021/09/29 09:25:37;;;;;;;12.25;5.53;;;512.50;1817.60;;;;;;5114100;28;20036;-67
2021/09/29 09:28:04;;;;;;;14.32;6.55;;;512.50;1817.60;;;;;;5115412;28;20039;-67
2021/09/29 09:30:35;;;;;;;12.90;5.72;;;512.60;1792.00;;;;;;5115312;28;20098;-67
2021/09/29 09:33:01;;;;;;;14.55;5.75;;;512.70;1792.00;;;;;;5115055;28;20028;-67
2021/09/29 09:35:45;;;;;;;10.25;5.07;;;512.80;1792.00;;;;;;5115340;28;20080;-67
2021/09/29 09:38:22;;;;;;;17.50;6.30;;;512.90;1766.40;;;;;;5115076;28;20030;-67
2021/09/29 09:40:58;;;;;;;22.50;6.78;;;537.60;1792.00;;;;;;5115206;28;20115;-67
2021/09/29 09:43:30;;;;;;;17.10;6.32;;;537.60;1766.40;;;;;;5114356;28;20047;-67
2021/09/29 09:45:58;;;;;;;14.13;7.82;;;537.60;1792.00;;;;;;5115484;28;20102;-65
2021/09/29 09:48:26;;;;;;;12.52;6.38;;;537.70;1792.00;;;;;;5114518;28;20103;-67
2021/09/29 09:51:04;;;;;;;11.40;6.60;;;537.90;1740.80;;;;;;5114831;28;20019;-67
2021/09/29 09:53:30;;;;;;;17.75;5.35;;;537.90;1740.80;;;;;;5115098;28;20027;-67
2021/09/29 09:55:56;;;;;;;12.82;5.30;;;538.00;1740.80;;;;;;5115099;28;20343;-67
2021/09/29 09:58:22;;;;;;;11.25;4.70;;;538.00;1715.20;;;;;;5114781;28;20039;-67
2021/09/29 10:00:47;;;;;;;12.50;6.13;;;538.10;1715.20;;;;;;5114543;28;20469;-67
2021/09/29 10:03:14;;;;;;;14.77;6.35;;;538.10;1715.20;;;;;;5114709;28;20030;-67
2021/09/29 10:05:42;;;;;;;16.90;6.80;;;538.20;1715.20;;;;;;5114453;28;20020;-67
2021/09/29 10:08:10;;;;;;;25.23;6.80;;;538.30;1689.60;;;;;;5113277;28;20043;-67
2021/09/29 10:13:36;;;;;;;14.70;6.60;;;538.40;1664.00;;;;;;5114710;28;20019;-67
2021/09/29 10:27:15;;;;;;;20.10;6.07;;;563.30;1638.40;;;;;;5114309;28;20115;-67
2021/09/29 10:29:45;;;;;;;10.48;5.95;;;563.30;1638.40;;;;;;5114516;28;20107;-67
2021/09/29 10:32:31;;;;;;;11.80;5.10;;;563.30;1638.40;;;;;;5114387;28;20059;-67
2021/09/29 12:08:43;;;;;;;9.98;3.40;;;563.80;1536.00;;;;;;4938740;29;20093;-67
2021/09/29 12:11:13;;;;;;;7.70;3.50;;;563.80;1536.00;;;;;;4933109;29;20110;-67
2021/09/29 12:14:05;;;;;;;13.10;3.80;;;563.90;1510.40;;;;;;4937562;29;20456;-70
2021/09/29 12:16:36;;;;;;;3.95;3.42;;;563.90;1510.40;;;;;;4933307;29;20469;-67
2021/09/29 12:19:08;;;;;;;4.97;3.20;;;563.80;1484.80;;;;;;4938917;29;20119;-69
2021/09/29 12:21:48;;;;;;;6.15;4.07;;;563.80;1484.80;;;;;;4938122;29;20034;-67
2021/09/29 12:24:27;;;;;;;4.65;3.30;;;563.80;1484.80;;;;;;4937469;29;20032;-67
2021/09/29 12:26:55;;;;;;;5.78;3.97;;;563.80;1484.80;;;;;;4919942;29;20038;-69
2021/09/29 12:29:35;;;;;;;6.25;3.70;;;563.80;1484.80;;;;;;4937081;29;20035;-69
2021/09/29 12:35:03;;;;;;;10.73;4.20;;;563.90;1484.80;;;;;;4933412;29;20024;-67
2021/09/29 12:37:29;;;;;;;6.72;4.57;;;563.90;1484.80;;;;;;4935253;29;20056;-68
2021/09/29 12:39:56;;;;;;;8.50;4.53;;;563.90;1484.80;;;;;;4936863;29;20430;-68
2021/09/29 12:42:33;;;;;;;7.07;4.25;;;563.90;1484.80;;;;;;4937973;29;20023;-67
2021/09/29 12:44:59;;;;;;;7.88;3.60;;;563.90;1484.80;;;;;;4938252;29;20498;-69
2021/09/29 12:50:10;;;;;;;12.35;3.00;;;563.80;1484.80;;;;;;4937414;29;20480;-68
2021/09/29 12:52:37;;;;;;;5.60;3.00;;;563.80;1484.80;;;;;;4937544;29;20032;-69
2021/09/29 12:55:04;;;;;;;6.60;2.95;;;563.80;1459.20;;;;;;4933339;29;20119;-68
2021/09/29 12:57:30;;;;;;;10.77;2.80;;;563.70;1484.80;;;;;;4938256;29;20038;-69
2021/09/29 12:59:57;;;;;;;10.27;2.97;;;563.70;1484.80;;;;;;4938234;29;20035;-68
2021/09/29 13:02:24;;;;;;;5.75;3.25;;;563.70;1484.80;;;;;;4938445;29;20521;-68
2021/09/29 13:04:50;;;;;;;5.88;2.63;;;563.70;1459.20;;;;;;4937919;29;20465;-68
2021/09/29 13:07:15;;;;;;;4.18;2.55;;;563.70;1459.20;;;;;;4937880;29;20056;-68
2021/09/29 13:09:41;;;;;;;7.55;2.50;;;563.70;1459.20;;;;;;4938259;29;20055;-68
2021/09/29 13:12:07;;;;;;;6.57;3.63;;;563.70;1459.20;;;;;;4937836;29;20024;-67
2021/09/29 13:14:33;;;;;;;14.05;3.08;;;563.70;1484.80;;;;;;4936196;29;20032;-67
2021/09/29 13:16:59;;;;;;;11.02;4.15;;;563.60;1459.20;;;;;;4935512;29;20031;-67
2021/09/29 13:19:29;;;;;;;10.98;3.40;;;563.60;1459.20;;;;;;4936293;29;20433;-68
2021/09/29 13:21:57;;;;;;;8.00;3.00;;;563.60;1484.80;;;;;;4931355;29;20032;-68
2021/09/29 13:25:03;;;;;;;3.55;2.97;;;563.50;1484.80;;;;;;4936376;29;20055;-67
2021/09/29 13:37:56;;;;;;;5.60;3.13;;;563.40;1484.80;;;;;;4823703;29;20042;-68
2021/09/29 13:40:23;;;;;;;5.55;2.75;;;563.40;1484.80;;;;;;4823706;29;20107;-68
2021/09/29 13:42:48;;;;;;;7.88;2.38;;;563.50;1484.80;;;;;;4823114;29;20496;-68
2021/09/29 13:45:14;;;;;;;7.93;2.53;;;563.50;1484.80;;;;;;4823624;29;20030;-68
2021/09/29 13:47:40;;;;;;;9.40;2.72;;;563.60;1484.80;;;;;;4822995;29;20066;-68
2021/09/29 13:50:06;;;;;;;6.45;3.03;;;563.60;1484.80;;;;;;4823615;29;20046;-67
2021/09/29 13:52:33;;;;;;;6.75;2.65;;;563.60;1484.80;;;;;;4823375;29;20094;-68
2021/09/29 13:55:05;;;;;;;9.77;3.90;;;563.70;1459.20;;;;;;4823446;29;20026;-68
2021/09/29 13:57:45;;;;;;;15.00;3.08;;;563.70;1484.80;;;;;;4823608;29;20405;-68
2021/09/29 14:02:53;;;;;;;16.73;3.38;;;563.70;1459.20;;;;;;4823488;29;20041;-68
2021/09/29 14:30:14;;;;;;;7.57;3.42;;;563.60;1459.20;;;;;;4787201;30;20130;-70
2021/09/29 14:33:02;;;;;;;12.07;3.50;;;563.50;1459.20;;;;;;4786778;30;20039;-70
2021/09/29 14:35:28;;;;;;;9.52;3.28;;;563.40;1459.20;;;;;;4786585;30;20074;-70
2021/09/29 14:37:55;;;;;;;10.10;2.97;;;563.40;1459.20;;;;;;4786588;30;20051;-70
2021/09/29 14:40:23;;;;;;;15.70;3.88;;;563.30;1459.20;;;;;;4786641;29;20023;-70
2021/09/29 14:42:50;;;;;;;11.52;3.35;;;563.20;1459.20;;;;;;4786751;30;20035;-70
2021/09/29 14:45:19;;;;;;;15.63;3.58;;;563.20;1459.20;;;;;;4786797;30;20035;-69
2021/09/29 14:47:48;;;;;;;10.15;3.63;;;538.50;1433.60;;;;;;4807431;29;20102;-69
2021/09/29 14:50:15;;;;;;;15.02;3.08;;;538.50;1433.60;;;;;;4840859;29;20022;-69
2021/09/29 14:52:41;;;;;;;5.25;2.83;;;538.40;1433.60;;;;;;4841033;29;20038;-69
2021/09/29 14:55:07;;;;;;;17.27;3.80;;;538.30;1433.60;;;;;;4841044;29;20442;-70
2021/09/29 14:57:33;;;;;;;14.40;3.70;;;538.20;1433.60;;;;;;4825644;29;20450;-69
2021/09/29 14:59:59;;;;;;;17.33;2.92;;;538.10;1433.60;;;;;;4841030;29;20030;-69
2021/09/29 15:02:25;;;;;;;7.38;2.92;;;538.10;1433.60;;;;;;4840924;29;20127;-70
2021/09/29 15:04:51;;;;;;;13.63;2.58;;;538.00;1459.20;;;;;;4903571;29;20055;-70
2021/09/29 15:07:16;;;;;;;8.75;2.25;;;538.00;1459.20;;;;;;4936399;29;20024;-69
2021/09/29 15:09:42;;;;;;;13.90;2.17;;;537.90;1459.20;;;;;;4936827;29;20469;-70
2021/09/29 15:12:08;;;;;;;21.85;3.28;;;537.80;1459.20;;;;;;4936329;29;20034;-70
2021/09/29 15:17:17;;;;;;;13.82;4.15;;;537.80;1459.20;;;;;;4936300;29;20027;-69